createdAt,value
2022-12-01T00:19:11.339Z,18.9
2022-12-01T00:39:11.259Z,18.9
2022-12-01T00:59:11.247Z,18.8
2022-12-01T01:19:11.225Z,18.8
2022-12-01T01:39:11.209Z,18.8
2022-12-01T01:59:11.132Z,18.7
2022-12-01T02:19:11.147Z,18.7
2022-12-01T02:39:11.123Z,18.6
2022-12-01T02:59:11.075Z,18.6
2022-12-01T03:19:11.066Z,18.6
2022-12-01T03:39:11.057Z,18.5
2022-12-01T03:59:10.993Z,18.5
2022-12-01T04:19:11.017Z,18.6
2022-12-01T04:39:10.940Z,18.8
2022-12-01T04:59:10.926Z,18.9
2022-12-01T05:19:10.890Z,19.0
2022-12-01T05:39:10.920Z,19.1
2022-12-01T05:59:10.845Z,19.2
2022-12-01T06:19:10.857Z,19.5
2022-12-01T06:39:10.822Z,19.7
2022-12-01T06:59:10.776Z,19.8
2022-12-01T07:19:10.834Z,19.9
2022-12-01T07:39:10.791Z,20.0
2022-12-01T07:59:10.834Z,20.0
2022-12-01T08:19:10.709Z,20.2
2022-12-01T08:39:10.806Z,20.2
2022-12-01T08:59:10.763Z,20.2
2022-12-01T09:19:10.619Z,20.3
2022-12-01T09:39:10.608Z,20.4
2022-12-01T09:59:10.591Z,20.5
2022-12-01T10:19:10.569Z,20.4
2022-12-01T10:39:10.656Z,20.3
2022-12-01T10:59:10.594Z,20.2
2022-12-01T11:19:10.609Z,20.2
2022-12-01T11:39:10.611Z,20.1
2022-12-01T11:59:10.563Z,20.1
2022-12-01T12:19:10.604Z,21.6
2022-12-01T12:39:10.419Z,20.9
2022-12-01T12:59:10.460Z,20.5
2022-12-01T13:19:10.429Z,20.4
2022-12-01T13:39:10.339Z,20.3
2022-12-01T13:59:10.425Z,20.2
2022-12-01T14:19:10.221Z,20.2
2022-12-01T14:39:10.197Z,20.2
2022-12-01T14:59:10.208Z,20.2
2022-12-01T15:19:10.172Z,20.2
2022-12-01T15:39:10.135Z,20.2
2022-12-01T15:59:10.136Z,20.3
2022-12-01T16:19:10.076Z,20.2
2022-12-01T16:39:10.075Z,20.2
2022-12-01T16:59:10.057Z,20.2
2022-12-01T17:19:09.990Z,20.2
2022-12-01T17:39:09.984Z,20.2
2022-12-01T17:59:09.982Z,20.2
2022-12-01T18:19:09.923Z,20.2
2022-12-01T18:39:09.898Z,20.2
2022-12-01T18:59:09.858Z,20.2
2022-12-01T19:19:09.888Z,20.2
2022-12-01T19:39:09.821Z,20.1
2022-12-01T19:59:09.800Z,20.0
2022-12-01T20:19:09.762Z,19.9
2022-12-01T20:39:09.802Z,19.8
2022-12-01T20:59:09.749Z,19.6
2022-12-01T21:19:09.788Z,19.5
2022-12-01T21:39:09.683Z,19.4
2022-12-01T21:59:09.775Z,19.3
2022-12-01T22:19:09.716Z,19.2
2022-12-01T22:39:09.626Z,19.1
2022-12-01T22:59:09.576Z,19.0
2022-12-01T23:19:09.544Z,19.0
2022-12-01T23:39:09.533Z,18.9
2022-12-01T23:59:09.527Z,18.9
